sensor_id;sensor_type;location;lat;lon;timestamp;temperature;humidity
7159;DHT22;63175;52.374;13.132;2023-02-25T00:00:34;4.50;99.90
7159;DHT22;63175;52.374;13.132;2023-02-25T00:03:01;4.50;99.90
7159;DHT22;63175;52.374;13.132;2023-02-25T00:05:28;4.40;99.90
7159;DHT22;63175;52.374;13.132;2023-02-25T00:07:56;4.40;99.90
7159;DHT22;63175;52.374;13.132;2023-02-25T00:10:24;4.30;99.90
7159;DHT22;63175;52.374;13.132;2023-02-25T00:12:51;4.30;99.90
7159;DHT22;63175;52.374;13.132;2023-02-25T00:15:18;4.30;99.90
7159;DHT22;63175;52.374;13.132;2023-02-25T00:17:45;4.30;99.90
7159;DHT22;63175;52.374;13.132;2023-02-25T00:20:15;4.30;99.90
7159;DHT22;63175;52.374;13.132;2023-02-25T00:22:45;4.30;99.90
7159;DHT22;63175;52.374;13.132;2023-02-25T00:25:12;4.30;99.90
7159;DHT22;63175;52.374;13.132;2023-02-25T00:27:42;4.30;99.90
7159;DHT22;63175;52.374;13.132;2023-02-25T00:30:10;4.30;99.90
7159;DHT22;63175;52.374;13.132;2023-02-25T00:32:37;4.30;99.90
7159;DHT22;63175;52.374;13.132;2023-02-25T00:35:05;4.20;99.90
7159;DHT22;63175;52.374;13.132;2023-02-25T00:37:36;4.20;99.90
7159;DHT22;63175;52.374;13.132;2023-02-25T00:40:04;4.20;99.90
7159;DHT22;63175;52.374;13.132;2023-02-25T00:42:34;4.20;99.90
7159;DHT22;63175;52.374;13.132;2023-02-25T00:45:02;4.20;99.90
7159;DHT22;63175;52.374;13.132;2023-02-25T00:47:29;4.20;99.90
7159;DHT22;63175;52.374;13.132;2023-02-25T00:49:56;4.20;99.90
7159;DHT22;63175;52.374;13.132;2023-02-25T00:52:23;4.20;99.90
7159;DHT22;63175;52.374;13.132;2023-02-25T00:54:50;4.20;99.90
7159;DHT22;63175;52.374;13.132;2023-02-25T00:57:17;4.10;99.90
7159;DHT22;63175;52.374;13.132;2023-02-25T00:59:44;4.10;99.90
7159;DHT22;63175;52.374;13.132;2023-02-25T01:02:12;4.00;99.90
7159;DHT22;63175;52.374;13.132;2023-02-25T01:04:39;4.00;99.90
7159;DHT22;63175;52.374;13.132;2023-02-25T01:07:07;3.90;99.90
7159;DHT22;63175;52.374;13.132;2023-02-25T01:09:35;3.90;99.90
7159;DHT22;63175;52.374;13.132;2023-02-25T01:12:02;3.80;99.90
7159;DHT22;63175;52.374;13.132;2023-02-25T01:14:29;3.80;99.90
7159;DHT22;63175;52.374;13.132;2023-02-25T01:16:56;3.70;99.90
7159;DHT22;63175;52.374;13.132;2023-02-25T01:19:28;3.70;99.90
7159;DHT22;63175;52.374;13.132;2023-02-25T01:21:56;3.70;99.90
7159;DHT22;63175;52.374;13.132;2023-02-25T01:24:25;3.70;99.90
7159;DHT22;63175;52.374;13.132;2023-02-25T01:26:55;3.80;99.90
7159;DHT22;63175;52.374;13.132;2023-02-25T01:29:23;3.80;99.90
7159;DHT22;63175;52.374;13.132;2023-02-25T01:31:52;3.80;99.90
7159;DHT22;63175;52.374;13.132;2023-02-25T01:34:20;3.80;99.90
7159;DHT22;63175;52.374;13.132;2023-02-25T01:36:48;3.80;99.90
7159;DHT22;63175;52.374;13.132;2023-02-25T01:39:18;3.90;99.90
7159;DHT22;63175;52.374;13.132;2023-02-25T01:41:45;3.90;99.90
7159;DHT22;63175;52.374;13.132;2023-02-25T01:44:16;3.90;99.90
7159;DHT22;63175;52.374;13.132;2023-02-25T01:46:44;3.90;99.90
7159;DHT22;63175;52.374;13.132;2023-02-25T01:49:15;3.90;99.90
7159;DHT22;63175;52.374;13.132;2023-02-25T01:51:46;3.90;99.90
7159;DHT22;63175;52.374;13.132;2023-02-25T01:54:15;3.90;99.90
7159;DHT22;63175;52.374;13.132;2023-02-25T01:56:45;3.90;99.90
7159;DHT22;63175;52.374;13.132;2023-02-25T01:59:14;4.00;99.90
7159;DHT22;63175;52.374;13.132;2023-02-25T02:01:42;4.00;99.90
7159;DHT22;63175;52.374;13.132;2023-02-25T02:04:11;4.00;99.90
7159;DHT22;63175;52.374;13.132;2023-02-25T02:06:41;4.00;99.90
7159;DHT22;63175;52.374;13.132;2023-02-25T02:09:10;4.00;99.90
7159;DHT22;63175;52.374;13.132;2023-02-25T02:11:40;4.00;99.90
7159;DHT22;63175;52.374;13.132;2023-02-25T02:14:10;4.00;99.90
7159;DHT22;63175;52.374;13.132;2023-02-25T02:17:04;3.90;99.90
7159;DHT22;63175;52.374;13.132;2023-02-25T02:19:47;3.90;99.90
7159;DHT22;63175;52.374;13.132;2023-02-25T02:22:24;3.90;99.90
7159;DHT22;63175;52.374;13.132;2023-02-25T02:25:23;3.90;99.90
7159;DHT22;63175;52.374;13.132;2023-02-25T02:28:11;3.90;99.90
7159;DHT22;63175;52.374;13.132;2023-02-25T02:30:52;3.90;99.90
7159;DHT22;63175;52.374;13.132;2023-02-25T02:33:28;3.90;99.90
7159;DHT22;63175;52.374;13.132;2023-02-25T02:36:06;3.90;99.90
7159;DHT22;63175;52.374;13.132;2023-02-25T02:38:39;3.90;99.90
7159;DHT22;63175;52.374;13.132;2023-02-25T02:41:13;3.90;99.90
7159;DHT22;63175;52.374;13.132;2023-02-25T02:43:45;3.90;99.90
7159;DHT22;63175;52.374;13.132;2023-02-25T02:46:18;3.90;99.90
7159;DHT22;63175;52.374;13.132;2023-02-25T02:48:51;3.90;99.90
7159;DHT22;63175;52.374;13.132;2023-02-25T02:51:23;3.90;99.90
7159;DHT22;63175;52.374;13.132;2023-02-25T02:53:53;3.90;99.90
7159;DHT22;63175;52.374;13.132;2023-02-25T02:56:23;3.90;99.90
7159;DHT22;63175;52.374;13.132;2023-02-25T02:58:54;3.90;99.90
7159;DHT22;63175;52.374;13.132;2023-02-25T03:01:26;3.90;99.90
7159;DHT22;63175;52.374;13.132;2023-02-25T03:03:59;3.90;99.90
7159;DHT22;63175;52.374;13.132;2023-02-25T03:06:30;3.90;99.90
7159;DHT22;63175;52.374;13.132;2023-02-25T03:09:02;3.90;99.90
7159;DHT22;63175;52.374;13.132;2023-02-25T03:11:30;3.90;99.90
7159;DHT22;63175;52.374;13.132;2023-02-25T03:13:57;3.90;99.90
7159;DHT22;63175;52.374;13.132;2023-02-25T03:16:27;3.90;99.90
7159;DHT22;63175;52.374;13.132;2023-02-25T03:19:00;3.90;99.90
7159;DHT22;63175;52.374;13.132;2023-02-25T03:21:34;3.90;99.90
7159;DHT22;63175;52.374;13.132;2023-02-25T03:24:06;3.90;99.90
7159;DHT22;63175;52.374;13.132;2023-02-25T03:26:34;3.90;99.90
7159;DHT22;63175;52.374;13.132;2023-02-25T03:29:01;3.90;99.90
7159;DHT22;63175;52.374;13.132;2023-02-25T03:31:31;3.90;99.90
7159;DHT22;63175;52.374;13.132;2023-02-25T03:34:05;3.90;99.90
7159;DHT22;63175;52.374;13.132;2023-02-25T03:36:37;3.90;99.90
7159;DHT22;63175;52.374;13.132;2023-02-25T03:39:09;3.80;99.90
7159;DHT22;63175;52.374;13.132;2023-02-25T03:41:40;3.80;99.90
7159;DHT22;63175;52.374;13.132;2023-02-25T03:44:12;3.80;99.90
7159;DHT22;63175;52.374;13.132;2023-02-25T03:46:42;3.80;99.90
7159;DHT22;63175;52.374;13.132;2023-02-25T03:49:17;3.80;99.90
7159;DHT22;63175;52.374;13.132;2023-02-25T03:51:47;3.80;99.90
7159;DHT22;63175;52.374;13.132;2023-02-25T03:54:15;3.80;99.90
7159;DHT22;63175;52.374;13.132;2023-02-25T03:56:44;3.70;99.90
7159;DHT22;63175;52.374;13.132;2023-02-25T03:59:12;3.70;99.90
7159;DHT22;63175;52.374;13.132;2023-02-25T04:01:40;3.70;99.90
7159;DHT22;63175;52.374;13.132;2023-02-25T04:04:08;3.70;99.90
7159;DHT22;63175;52.374;13.132;2023-02-25T04:06:36;3.70;99.90
7159;DHT22;63175;52.374;13.132;2023-02-25T04:09:04;3.70;99.90
7159;DHT22;63175;52.374;13.132;2023-02-25T04:11:32;3.70;99.90
7159;DHT22;63175;52.374;13.132;2023-02-25T04:13:58;3.60;99.90
7159;DHT22;63175;52.374;13.132;2023-02-25T04:16:25;3.60;99.90
7159;DHT22;63175;52.374;13.132;2023-02-25T04:18:52;3.60;99.90
7159;DHT22;63175;52.374;13.132;2023-02-25T04:21:27;3.60;99.90
7159;DHT22;63175;52.374;13.132;2023-02-25T04:23:56;3.60;99.90
7159;DHT22;63175;52.374;13.132;2023-02-25T04:26:23;3.60;99.90
7159;DHT22;63175;52.374;13.132;2023-02-25T04:28:50;3.50;99.90
7159;DHT22;63175;52.374;13.132;2023-02-25T04:31:17;3.50;99.90
7159;DHT22;63175;52.374;13.132;2023-02-25T04:33:44;3.50;99.90
7159;DHT22;63175;52.374;13.132;2023-02-25T04:36:28;3.50;99.90
7159;DHT22;63175;52.374;13.132;2023-02-25T04:38:57;3.50;99.90
7159;DHT22;63175;52.374;13.132;2023-02-25T04:41:28;3.40;99.90
7159;DHT22;63175;52.374;13.132;2023-02-25T04:43:55;3.40;99.90
7159;DHT22;63175;52.374;13.132;2023-02-25T04:46:22;3.40;99.90
7159;DHT22;63175;52.374;13.132;2023-02-25T04:48:49;3.40;99.90
7159;DHT22;63175;52.374;13.132;2023-02-25T04:51:17;3.40;99.90
7159;DHT22;63175;52.374;13.132;2023-02-25T04:53:44;3.40;99.90
7159;DHT22;63175;52.374;13.132;2023-02-25T04:56:12;3.40;99.90
7159;DHT22;63175;52.374;13.132;2023-02-25T04:58:40;3.40;99.90
7159;DHT22;63175;52.374;13.132;2023-02-25T05:01:07;3.40;99.90
7159;DHT22;63175;52.374;13.132;2023-02-25T05:03:35;3.40;99.90
7159;DHT22;63175;52.374;13.132;2023-02-25T05:06:03;3.40;99.90
7159;DHT22;63175;52.374;13.132;2023-02-25T05:08:30;3.40;99.90
7159;DHT22;63175;52.374;13.132;2023-02-25T05:10:58;3.40;99.90
7159;DHT22;63175;52.374;13.132;2023-02-25T05:13:26;3.40;99.90
7159;DHT22;63175;52.374;13.132;2023-02-25T05:16:02;3.40;99.90
7159;DHT22;63175;52.374;13.132;2023-02-25T05:18:29;3.40;99.90
7159;DHT22;63175;52.374;13.132;2023-02-25T05:20:56;3.40;99.90
7159;DHT22;63175;52.374;13.132;2023-02-25T05:23:25;3.40;99.90
7159;DHT22;63175;52.374;13.132;2023-02-25T05:25:52;3.30;99.90
7159;DHT22;63175;52.374;13.132;2023-02-25T05:28:19;3.30;99.90
7159;DHT22;63175;52.374;13.132;2023-02-25T05:30:47;3.30;99.90
7159;DHT22;63175;52.374;13.132;2023-02-25T05:33:17;3.30;99.90
7159;DHT22;63175;52.374;13.132;2023-02-25T05:35:44;3.40;99.90
7159;DHT22;63175;52.374;13.132;2023-02-25T05:38:11;3.50;99.90
7159;DHT22;63175;52.374;13.132;2023-02-25T05:40:38;3.50;99.90
7159;DHT22;63175;52.374;13.132;2023-02-25T05:43:05;3.50;99.90
7159;DHT22;63175;52.374;13.132;2023-02-25T05:45:33;3.50;99.90
7159;DHT22;63175;52.374;13.132;2023-02-25T05:48:01;3.40;99.90
7159;DHT22;63175;52.374;13.132;2023-02-25T05:50:28;3.40;99.90
7159;DHT22;63175;52.374;13.132;2023-02-25T05:53:06;3.40;99.90
7159;DHT22;63175;52.374;13.132;2023-02-25T05:55:33;3.30;99.90
7159;DHT22;63175;52.374;13.132;2023-02-25T05:57:59;3.20;99.90
7159;DHT22;63175;52.374;13.132;2023-02-25T06:00:26;3.20;99.90
7159;DHT22;63175;52.374;13.132;2023-02-25T06:02:53;3.20;99.90
7159;DHT22;63175;52.374;13.132;2023-02-25T06:05:21;3.10;99.90
7159;DHT22;63175;52.374;13.132;2023-02-25T06:07:48;3.10;99.90
7159;DHT22;63175;52.374;13.132;2023-02-25T06:10:16;3.10;99.90
7159;DHT22;63175;52.374;13.132;2023-02-25T06:12:43;3.00;99.90
7159;DHT22;63175;52.374;13.132;2023-02-25T06:15:10;3.00;99.90
7159;DHT22;63175;52.374;13.132;2023-02-25T06:17:38;3.00;99.90
7159;DHT22;63175;52.374;13.132;2023-02-25T06:20:06;3.00;99.90
7159;DHT22;63175;52.374;13.132;2023-02-25T06:22:35;2.90;99.90
7159;DHT22;63175;52.374;13.132;2023-02-25T06:25:02;2.90;99.90
7159;DHT22;63175;52.374;13.132;2023-02-25T06:27:29;2.90;99.90
7159;DHT22;63175;52.374;13.132;2023-02-25T06:29:56;2.90;99.90
7159;DHT22;63175;52.374;13.132;2023-02-25T06:32:23;2.90;99.90
7159;DHT22;63175;52.374;13.132;2023-02-25T06:34:50;2.90;99.90
7159;DHT22;63175;52.374;13.132;2023-02-25T06:37:17;2.90;99.90
7159;DHT22;63175;52.374;13.132;2023-02-25T06:39:45;2.90;99.90
7159;DHT22;63175;52.374;13.132;2023-02-25T06:42:12;3.00;99.90
7159;DHT22;63175;52.374;13.132;2023-02-25T06:44:39;3.00;99.90
7159;DHT22;63175;52.374;13.132;2023-02-25T06:47:06;3.00;99.90
7159;DHT22;63175;52.374;13.132;2023-02-25T06:49:33;3.00;99.90
7159;DHT22;63175;52.374;13.132;2023-02-25T06:52:00;3.10;99.90
7159;DHT22;63175;52.374;13.132;2023-02-25T06:54:27;3.10;99.90
7159;DHT22;63175;52.374;13.132;2023-02-25T06:56:56;3.10;99.90
7159;DHT22;63175;52.374;13.132;2023-02-25T06:59:22;3.10;99.90
7159;DHT22;63175;52.374;13.132;2023-02-25T07:01:49;3.10;99.90
7159;DHT22;63175;52.374;13.132;2023-02-25T07:04:17;3.10;99.90
7159;DHT22;63175;52.374;13.132;2023-02-25T07:06:44;3.10;99.90
7159;DHT22;63175;52.374;13.132;2023-02-25T07:09:11;3.10;99.90
7159;DHT22;63175;52.374;13.132;2023-02-25T07:11:38;3.10;99.90
7159;DHT22;63175;52.374;13.132;2023-02-25T07:14:06;3.20;99.90
7159;DHT22;63175;52.374;13.132;2023-02-25T07:16:33;3.20;99.90
7159;DHT22;63175;52.374;13.132;2023-02-25T07:19:01;3.20;99.90
7159;DHT22;63175;52.374;13.132;2023-02-25T07:21:28;3.10;99.90
7159;DHT22;63175;52.374;13.132;2023-02-25T07:23:55;3.10;99.90
7159;DHT22;63175;52.374;13.132;2023-02-25T07:26:23;3.10;99.90
7159;DHT22;63175;52.374;13.132;2023-02-25T07:28:53;3.10;99.90
7159;DHT22;63175;52.374;13.132;2023-02-25T07:31:22;3.10;99.90
7159;DHT22;63175;52.374;13.132;2023-02-25T07:33:50;3.10;99.90
7159;DHT22;63175;52.374;13.132;2023-02-25T07:36:17;3.10;99.90
7159;DHT22;63175;52.374;13.132;2023-02-25T07:38:44;3.10;99.90
7159;DHT22;63175;52.374;13.132;2023-02-25T07:41:16;3.10;99.90
7159;DHT22;63175;52.374;13.132;2023-02-25T07:43:43;3.10;99.90
7159;DHT22;63175;52.374;13.132;2023-02-25T07:46:11;3.10;99.90
7159;DHT22;63175;52.374;13.132;2023-02-25T07:48:40;3.20;99.90
7159;DHT22;63175;52.374;13.132;2023-02-25T07:51:08;3.20;99.90
7159;DHT22;63175;52.374;13.132;2023-02-25T07:53:37;3.30;99.90
7159;DHT22;63175;52.374;13.132;2023-02-25T07:56:05;3.30;99.90
7159;DHT22;63175;52.374;13.132;2023-02-25T07:58:32;3.40;99.90
7159;DHT22;63175;52.374;13.132;2023-02-25T08:00:59;3.40;99.90
7159;DHT22;63175;52.374;13.132;2023-02-25T08:03:28;3.40;99.90
7159;DHT22;63175;52.374;13.132;2023-02-25T08:05:56;3.40;99.90
7159;DHT22;63175;52.374;13.132;2023-02-25T08:08:24;3.50;99.90
7159;DHT22;63175;52.374;13.132;2023-02-25T08:10:51;3.50;99.90
7159;DHT22;63175;52.374;13.132;2023-02-25T08:13:18;3.50;99.90
7159;DHT22;63175;52.374;13.132;2023-02-25T08:15:45;3.50;99.90
7159;DHT22;63175;52.374;13.132;2023-02-25T08:18:12;3.50;99.90
7159;DHT22;63175;52.374;13.132;2023-02-25T08:20:39;3.50;99.90
7159;DHT22;63175;52.374;13.132;2023-02-25T08:23:11;3.50;99.90
7159;DHT22;63175;52.374;13.132;2023-02-25T08:25:38;3.50;99.90
7159;DHT22;63175;52.374;13.132;2023-02-25T08:28:05;3.50;99.90
7159;DHT22;63175;52.374;13.132;2023-02-25T08:30:32;3.50;99.90
7159;DHT22;63175;52.374;13.132;2023-02-25T08:32:59;3.50;99.90
7159;DHT22;63175;52.374;13.132;2023-02-25T08:35:26;3.50;99.90
7159;DHT22;63175;52.374;13.132;2023-02-25T08:37:53;3.50;99.90
7159;DHT22;63175;52.374;13.132;2023-02-25T08:40:21;3.50;99.90
7159;DHT22;63175;52.374;13.132;2023-02-25T08:42:48;3.50;99.90
7159;DHT22;63175;52.374;13.132;2023-02-25T08:45:14;3.50;99.90
7159;DHT22;63175;52.374;13.132;2023-02-25T08:47:41;3.50;99.90
7159;DHT22;63175;52.374;13.132;2023-02-25T08:50:09;3.50;99.90
7159;DHT22;63175;52.374;13.132;2023-02-25T08:52:37;3.50;99.90
7159;DHT22;63175;52.374;13.132;2023-02-25T08:55:04;3.50;99.90
7159;DHT22;63175;52.374;13.132;2023-02-25T08:57:33;3.50;99.90
7159;DHT22;63175;52.374;13.132;2023-02-25T08:59:59;3.50;99.90
7159;DHT22;63175;52.374;13.132;2023-02-25T09:02:26;3.50;99.90
7159;DHT22;63175;52.374;13.132;2023-02-25T09:04:53;3.50;99.90
7159;DHT22;63175;52.374;13.132;2023-02-25T09:07:20;3.50;99.90
7159;DHT22;63175;52.374;13.132;2023-02-25T09:09:47;3.50;99.90
7159;DHT22;63175;52.374;13.132;2023-02-25T09:12:14;3.50;99.90
7159;DHT22;63175;52.374;13.132;2023-02-25T09:14:42;3.60;99.90
7159;DHT22;63175;52.374;13.132;2023-02-25T09:17:09;3.60;99.90
7159;DHT22;63175;52.374;13.132;2023-02-25T09:19:36;3.50;99.90
7159;DHT22;63175;52.374;13.132;2023-02-25T09:22:04;3.50;99.90
7159;DHT22;63175;52.374;13.132;2023-02-25T09:24:31;3.50;99.90
7159;DHT22;63175;52.374;13.132;2023-02-25T09:26:58;3.50;99.90
7159;DHT22;63175;52.374;13.132;2023-02-25T09:29:26;3.50;99.90
7159;DHT22;63175;52.374;13.132;2023-02-25T09:31:54;3.60;99.90
7159;DHT22;63175;52.374;13.132;2023-02-25T09:34:21;3.60;99.90
7159;DHT22;63175;52.374;13.132;2023-02-25T09:36:47;3.60;99.90
7159;DHT22;63175;52.374;13.132;2023-02-25T09:39:14;3.60;99.90
7159;DHT22;63175;52.374;13.132;2023-02-25T09:41:48;3.60;99.90
7159;DHT22;63175;52.374;13.132;2023-02-25T09:44:18;3.60;99.90
7159;DHT22;63175;52.374;13.132;2023-02-25T09:46:49;3.60;99.90
7159;DHT22;63175;52.374;13.132;2023-02-25T09:49:23;3.70;99.90
7159;DHT22;63175;52.374;13.132;2023-02-25T09:51:56;3.70;99.90
7159;DHT22;63175;52.374;13.132;2023-02-25T09:54:26;3.70;99.90
7159;DHT22;63175;52.374;13.132;2023-02-25T09:56:57;3.60;99.90
7159;DHT22;63175;52.374;13.132;2023-02-25T09:59:28;3.60;99.90
7159;DHT22;63175;52.374;13.132;2023-02-25T10:01:57;3.60;99.90
7159;DHT22;63175;52.374;13.132;2023-02-25T10:04:31;3.60;99.90
7159;DHT22;63175;52.374;13.132;2023-02-25T10:07:06;3.60;99.90
7159;DHT22;63175;52.374;13.132;2023-02-25T10:09:39;3.60;99.90
7159;DHT22;63175;52.374;13.132;2023-02-25T10:12:17;3.70;99.90
7159;DHT22;63175;52.374;13.132;2023-02-25T10:17:43;3.80;99.90
7159;DHT22;63175;52.374;13.132;2023-02-25T10:20:38;3.80;99.90
7159;DHT22;63175;52.374;13.132;2023-02-25T10:23:16;3.90;99.90
7159;DHT22;63175;52.374;13.132;2023-02-25T10:25:53;4.10;99.90
7159;DHT22;63175;52.374;13.132;2023-02-25T10:28:22;4.30;99.90
7159;DHT22;63175;52.374;13.132;2023-02-25T10:30:52;4.40;99.90
7159;DHT22;63175;52.374;13.132;2023-02-25T10:33:23;4.50;99.90
7159;DHT22;63175;52.374;13.132;2023-02-25T10:35:55;4.60;99.90
7159;DHT22;63175;52.374;13.132;2023-02-25T10:38:23;4.70;99.90
7159;DHT22;63175;52.374;13.132;2023-02-25T10:40:51;4.70;99.90
7159;DHT22;63175;52.374;13.132;2023-02-25T10:43:21;4.70;99.90
7159;DHT22;63175;52.374;13.132;2023-02-25T10:45:53;4.80;99.90
7159;DHT22;63175;52.374;13.132;2023-02-25T10:48:24;4.70;99.90
7159;DHT22;63175;52.374;13.132;2023-02-25T10:51:08;4.60;99.90
7159;DHT22;63175;52.374;13.132;2023-02-25T10:53:37;4.50;99.90
7159;DHT22;63175;52.374;13.132;2023-02-25T10:56:04;4.60;99.90
7159;DHT22;63175;52.374;13.132;2023-02-25T10:58:35;4.80;99.90
7159;DHT22;63175;52.374;13.132;2023-02-25T11:01:07;5.00;99.90
7159;DHT22;63175;52.374;13.132;2023-02-25T11:06:27;5.10;99.90
7159;DHT22;63175;52.374;13.132;2023-02-25T11:08:56;5.30;99.90
7159;DHT22;63175;52.374;13.132;2023-02-25T11:11:25;6.00;99.90
7159;DHT22;63175;52.374;13.132;2023-02-25T11:13:58;6.90;99.90
7159;DHT22;63175;52.374;13.132;2023-02-25T11:16:25;7.60;99.90
7159;DHT22;63175;52.374;13.132;2023-02-25T11:18:56;7.70;99.90
7159;DHT22;63175;52.374;13.132;2023-02-25T11:21:31;7.70;99.90
7159;DHT22;63175;52.374;13.132;2023-02-25T11:24:00;7.40;99.90
7159;DHT22;63175;52.374;13.132;2023-02-25T11:26:30;7.10;99.90
7159;DHT22;63175;52.374;13.132;2023-02-25T11:29:00;6.60;99.90
7159;DHT22;63175;52.374;13.132;2023-02-25T11:31:32;6.00;99.90
7159;DHT22;63175;52.374;13.132;2023-02-25T11:34:02;5.50;99.90
7159;DHT22;63175;52.374;13.132;2023-02-25T11:36:34;5.20;99.90
7159;DHT22;63175;52.374;13.132;2023-02-25T11:39:13;5.10;99.90
7159;DHT22;63175;52.374;13.132;2023-02-25T11:41:41;5.00;99.90
7159;DHT22;63175;52.374;13.132;2023-02-25T11:44:24;4.80;99.90
7159;DHT22;63175;52.374;13.132;2023-02-25T11:47:15;4.80;99.90
7159;DHT22;63175;52.374;13.132;2023-02-25T11:50:13;4.80;99.90
7159;DHT22;63175;52.374;13.132;2023-02-25T11:52:45;4.60;99.90
7159;DHT22;63175;52.374;13.132;2023-02-25T11:55:25;4.40;99.90
7159;DHT22;63175;52.374;13.132;2023-02-25T11:58:03;4.10;99.90
7159;DHT22;63175;52.374;13.132;2023-02-25T12:00:39;3.80;99.90
7159;DHT22;63175;52.374;13.132;2023-02-25T12:06:14;3.70;99.90
7159;DHT22;63175;52.374;13.132;2023-02-25T12:08:54;3.70;99.90
7159;DHT22;63175;52.374;13.132;2023-02-25T12:11:57;3.90;99.90
7159;DHT22;63175;52.374;13.132;2023-02-25T12:24:20;6.00;99.90
7159;DHT22;63175;52.374;13.132;2023-02-25T12:33:24;5.50;99.90
7159;DHT22;63175;52.374;13.132;2023-02-25T12:36:05;4.90;99.90
7159;DHT22;63175;52.374;13.132;2023-02-25T12:41:48;4.20;99.90
7159;DHT22;63175;52.374;13.132;2023-02-25T12:47:24;4.20;99.90
7159;DHT22;63175;52.374;13.132;2023-02-25T12:50:13;4.10;99.90
7159;DHT22;63175;52.374;13.132;2023-02-25T12:52:58;4.10;99.90
7159;DHT22;63175;52.374;13.132;2023-02-25T12:56:11;4.20;99.90
7159;DHT22;63175;52.374;13.132;2023-02-25T12:58:50;4.30;99.90
7159;DHT22;63175;52.374;13.132;2023-02-25T13:01:41;4.20;99.90
7159;DHT22;63175;52.374;13.132;2023-02-25T13:04:29;4.20;99.90
7159;DHT22;63175;52.374;13.132;2023-02-25T13:07:33;4.00;99.90
7159;DHT22;63175;52.374;13.132;2023-02-25T13:10:15;4.10;99.90
7159;DHT22;63175;52.374;13.132;2023-02-25T13:12:57;4.30;99.90
7159;DHT22;63175;52.374;13.132;2023-02-25T13:15:34;4.40;99.90
7159;DHT22;63175;52.374;13.132;2023-02-25T13:18:14;4.40;99.90
7159;DHT22;63175;52.374;13.132;2023-02-25T13:21:03;4.40;99.90
7159;DHT22;63175;52.374;13.132;2023-02-25T13:23:50;4.50;99.90
7159;DHT22;63175;52.374;13.132;2023-02-25T13:26:43;4.40;99.90
7159;DHT22;63175;52.374;13.132;2023-02-25T13:29:24;4.30;99.90
7159;DHT22;63175;52.374;13.132;2023-02-25T13:32:03;4.20;99.90
7159;DHT22;63175;52.374;13.132;2023-02-25T13:34:39;4.10;99.90
7159;DHT22;63175;52.374;13.132;2023-02-25T13:37:27;3.80;99.90
7159;DHT22;63175;52.374;13.132;2023-02-25T13:43:03;3.50;99.90
7159;DHT22;63175;52.374;13.132;2023-02-25T13:45:59;3.50;99.90
7159;DHT22;63175;52.374;13.132;2023-02-25T13:48:54;3.60;99.90
7159;DHT22;63175;52.374;13.132;2023-02-25T13:57:20;3.80;99.90
7159;DHT22;63175;52.374;13.132;2023-02-25T14:00:01;3.80;99.90
7159;DHT22;63175;52.374;13.132;2023-02-25T14:03:02;3.80;99.90
7159;DHT22;63175;52.374;13.132;2023-02-25T14:05:45;3.80;99.90
7159;DHT22;63175;52.374;13.132;2023-02-25T14:08:27;3.80;99.90
7159;DHT22;63175;52.374;13.132;2023-02-25T14:11:23;3.80;99.90
7159;DHT22;63175;52.374;13.132;2023-02-25T14:14:04;3.80;99.90
7159;DHT22;63175;52.374;13.132;2023-02-25T14:16:46;3.80;99.90
7159;DHT22;63175;52.374;13.132;2023-02-25T14:19:28;3.90;99.90
7159;DHT22;63175;52.374;13.132;2023-02-25T14:22:18;3.90;99.90
7159;DHT22;63175;52.374;13.132;2023-02-25T14:24:53;4.00;99.90
7159;DHT22;63175;52.374;13.132;2023-02-25T14:27:26;3.90;99.90
7159;DHT22;63175;52.374;13.132;2023-02-25T14:30:17;3.90;99.90
7159;DHT22;63175;52.374;13.132;2023-02-25T14:32:55;3.90;99.90
7159;DHT22;63175;52.374;13.132;2023-02-25T14:35:34;3.90;99.90
7159;DHT22;63175;52.374;13.132;2023-02-25T14:38:09;4.00;99.90
7159;DHT22;63175;52.374;13.132;2023-02-25T14:40:41;3.90;99.90
7159;DHT22;63175;52.374;13.132;2023-02-25T14:43:29;3.90;99.90
7159;DHT22;63175;52.374;13.132;2023-02-25T14:46:02;3.90;99.90
7159;DHT22;63175;52.374;13.132;2023-02-25T14:48:37;3.90;99.90
7159;DHT22;63175;52.374;13.132;2023-02-25T14:54:35;3.80;99.90
7159;DHT22;63175;52.374;13.132;2023-02-25T14:57:28;3.80;99.90
7159;DHT22;63175;52.374;13.132;2023-02-25T15:00:27;3.80;99.90
7159;DHT22;63175;52.374;13.132;2023-02-25T15:03:29;3.80;99.90
7159;DHT22;63175;52.374;13.132;2023-02-25T15:06:11;3.80;99.90
7159;DHT22;63175;52.374;13.132;2023-02-25T15:12:02;3.80;99.90
7159;DHT22;63175;52.374;13.132;2023-02-25T15:14:54;3.90;99.90
7159;DHT22;63175;52.374;13.132;2023-02-25T15:20:33;3.80;99.90
7159;DHT22;63175;52.374;13.132;2023-02-25T15:23:05;3.70;99.90
7159;DHT22;63175;52.374;13.132;2023-02-25T15:25:37;3.60;99.90
7159;DHT22;63175;52.374;13.132;2023-02-25T15:28:36;3.60;99.90
7159;DHT22;63175;52.374;13.132;2023-02-25T15:34:26;3.50;99.90
7159;DHT22;63175;52.374;13.132;2023-02-25T15:37:23;3.40;99.90
7159;DHT22;63175;52.374;13.132;2023-02-25T15:39:52;3.30;99.90
7159;DHT22;63175;52.374;13.132;2023-02-25T15:45:41;3.10;99.90
7159;DHT22;63175;52.374;13.132;2023-02-25T15:48:39;3.00;99.90
7159;DHT22;63175;52.374;13.132;2023-02-25T15:51:09;2.90;99.90
7159;DHT22;63175;52.374;13.132;2023-02-25T15:53:39;2.80;99.90
7159;DHT22;63175;52.374;13.132;2023-02-25T15:56:49;2.80;99.90
7159;DHT22;63175;52.374;13.132;2023-02-25T15:59:38;2.70;99.90
7159;DHT22;63175;52.374;13.132;2023-02-25T16:02:39;2.60;99.90
7159;DHT22;63175;52.374;13.132;2023-02-25T16:05:19;2.60;99.90
7159;DHT22;63175;52.374;13.132;2023-02-25T16:07:50;2.50;99.90
7159;DHT22;63175;52.374;13.132;2023-02-25T16:10:23;2.50;99.90
7159;DHT22;63175;52.374;13.132;2023-02-25T16:12:54;2.50;99.90
7159;DHT22;63175;52.374;13.132;2023-02-25T16:15:26;2.40;99.90
7159;DHT22;63175;52.374;13.132;2023-02-25T16:18:11;2.40;99.90
7159;DHT22;63175;52.374;13.132;2023-02-25T16:20:41;2.30;99.90
7159;DHT22;63175;52.374;13.132;2023-02-25T16:23:12;2.20;99.90
7159;DHT22;63175;52.374;13.132;2023-02-25T16:25:46;2.20;99.90
7159;DHT22;63175;52.374;13.132;2023-02-25T16:28:19;2.10;99.90
7159;DHT22;63175;52.374;13.132;2023-02-25T16:30:53;2.00;99.90
7159;DHT22;63175;52.374;13.132;2023-02-25T16:33:30;1.90;99.90
7159;DHT22;63175;52.374;13.132;2023-02-25T16:36:04;1.90;99.90
7159;DHT22;63175;52.374;13.132;2023-02-25T16:38:41;1.90;99.90
7159;DHT22;63175;52.374;13.132;2023-02-25T16:41:12;1.90;99.90
7159;DHT22;63175;52.374;13.132;2023-02-25T16:43:42;1.80;99.90
7159;DHT22;63175;52.374;13.132;2023-02-25T16:46:12;1.80;99.90
7159;DHT22;63175;52.374;13.132;2023-02-25T16:48:46;1.80;99.90
7159;DHT22;63175;52.374;13.132;2023-02-25T16:51:20;1.80;99.90
7159;DHT22;63175;52.374;13.132;2023-02-25T16:53:54;1.80;99.90
7159;DHT22;63175;52.374;13.132;2023-02-25T16:56:24;1.80;99.90
7159;DHT22;63175;52.374;13.132;2023-02-25T16:59:03;1.70;99.90
7159;DHT22;63175;52.374;13.132;2023-02-25T17:01:33;1.70;99.90
7159;DHT22;63175;52.374;13.132;2023-02-25T17:04:13;1.70;99.90
7159;DHT22;63175;52.374;13.132;2023-02-25T17:06:40;1.60;99.90
7159;DHT22;63175;52.374;13.132;2023-02-25T17:09:21;1.60;99.90
7159;DHT22;63175;52.374;13.132;2023-02-25T17:11:52;1.60;99.90
7159;DHT22;63175;52.374;13.132;2023-02-25T17:14:20;1.50;99.90